sensor_id;sensor_type;location;lat;lon;timestamp;P1;durP1;ratioP1;P2;durP2;ratioP2
21426;SDS011;10874;49.452;11.050;2023-04-29T00:01:18;2.70;;;2.50;;
21426;SDS011;10874;49.452;11.050;2023-04-29T00:03:45;3.80;;;2.50;;
21426;SDS011;10874;49.452;11.050;2023-04-29T00:06:13;3.47;;;2.80;;
21426;SDS011;10874;49.452;11.050;2023-04-29T00:08:40;5.13;;;2.70;;
21426;SDS011;10874;49.452;11.050;2023-04-29T00:11:06;3.33;;;2.30;;
21426;SDS011;10874;49.452;11.050;2023-04-29T00:13:33;3.10;;;2.50;;
21426;SDS011;10874;49.452;11.050;2023-04-29T00:16:00;3.53;;;2.50;;
21426;SDS011;10874;49.452;11.050;2023-04-29T00:18:27;4.27;;;2.73;;
21426;SDS011;10874;49.452;11.050;2023-04-29T00:20:53;4.67;;;2.60;;
21426;SDS011;10874;49.452;11.050;2023-04-29T00:23:20;2.90;;;2.40;;
21426;SDS011;10874;49.452;11.050;2023-04-29T00:25:47;3.43;;;2.20;;
21426;SDS011;10874;49.452;11.050;2023-04-29T00:28:14;2.77;;;2.17;;
21426;SDS011;10874;49.452;11.050;2023-04-29T00:30:40;2.17;;;1.90;;
21426;SDS011;10874;49.452;11.050;2023-04-29T00:33:07;4.40;;;2.00;;
21426;SDS011;10874;49.452;11.050;2023-04-29T00:35:34;2.30;;;2.10;;
21426;SDS011;10874;49.452;11.050;2023-04-29T00:38:01;2.07;;;1.87;;
21426;SDS011;10874;49.452;11.050;2023-04-29T00:40:28;2.60;;;2.10;;
21426;SDS011;10874;49.452;11.050;2023-04-29T00:42:55;2.37;;;2.00;;
21426;SDS011;10874;49.452;11.050;2023-04-29T00:45:21;2.10;;;1.90;;
21426;SDS011;10874;49.452;11.050;2023-04-29T00:47:49;2.43;;;2.00;;
21426;SDS011;10874;49.452;11.050;2023-04-29T00:50:16;2.77;;;2.00;;
21426;SDS011;10874;49.452;11.050;2023-04-29T00:52:43;2.83;;;1.90;;
21426;SDS011;10874;49.452;11.050;2023-04-29T00:55:10;1.80;;;1.70;;
21426;SDS011;10874;49.452;11.050;2023-04-29T00:57:38;2.07;;;1.87;;
21426;SDS011;10874;49.452;11.050;2023-04-29T01:00:05;1.93;;;1.83;;
21426;SDS011;10874;49.452;11.050;2023-04-29T01:02:32;2.00;;;1.90;;
21426;SDS011;10874;49.452;11.050;2023-04-29T01:05:00;2.33;;;2.10;;
21426;SDS011;10874;49.452;11.050;2023-04-29T01:07:32;2.17;;;1.97;;
21426;SDS011;10874;49.452;11.050;2023-04-29T01:10:09;4.80;;;2.27;;
21426;SDS011;10874;49.452;11.050;2023-04-29T01:15:12;3.67;;;2.13;;
21426;SDS011;10874;49.452;11.050;2023-04-29T01:17:55;2.47;;;2.27;;
21426;SDS011;10874;49.452;11.050;2023-04-29T01:20:25;2.40;;;2.20;;
21426;SDS011;10874;49.452;11.050;2023-04-29T01:22:53;2.30;;;2.10;;
21426;SDS011;10874;49.452;11.050;2023-04-29T01:25:20;2.30;;;2.10;;
21426;SDS011;10874;49.452;11.050;2023-04-29T01:30:49;3.10;;;2.30;;
21426;SDS011;10874;49.452;11.050;2023-04-29T01:33:38;2.90;;;2.40;;
21426;SDS011;10874;49.452;11.050;2023-04-29T01:36:19;3.03;;;2.30;;
21426;SDS011;10874;49.452;11.050;2023-04-29T01:41:17;2.60;;;2.40;;
21426;SDS011;10874;49.452;11.050;2023-04-29T01:43:51;2.40;;;2.20;;
21426;SDS011;10874;49.452;11.050;2023-04-29T01:46:22;2.30;;;2.10;;
21426;SDS011;10874;49.452;11.050;2023-04-29T01:48:52;3.07;;;2.77;;
21426;SDS011;10874;49.452;11.050;2023-04-29T01:51:19;2.47;;;2.20;;
21426;SDS011;10874;49.452;11.050;2023-04-29T01:53:47;2.93;;;2.50;;
21426;SDS011;10874;49.452;11.050;2023-04-29T01:56:14;3.30;;;3.00;;
21426;SDS011;10874;49.452;11.050;2023-04-29T01:58:59;3.37;;;2.90;;
21426;SDS011;10874;49.452;11.050;2023-04-29T02:01:41;3.00;;;2.70;;
21426;SDS011;10874;49.452;11.050;2023-04-29T02:04:08;3.27;;;2.97;;
21426;SDS011;10874;49.452;11.050;2023-04-29T02:06:35;3.80;;;2.73;;
21426;SDS011;10874;49.452;11.050;2023-04-29T02:09:03;2.73;;;2.53;;
21426;SDS011;10874;49.452;11.050;2023-04-29T02:11:32;3.00;;;2.70;;
21426;SDS011;10874;49.452;11.050;2023-04-29T02:13:58;3.30;;;3.00;;
21426;SDS011;10874;49.452;11.050;2023-04-29T02:16:26;3.27;;;2.97;;
21426;SDS011;10874;49.452;11.050;2023-04-29T02:19:00;3.40;;;3.10;;
21426;SDS011;10874;49.452;11.050;2023-04-29T02:21:26;3.33;;;2.97;;
21426;SDS011;10874;49.452;11.050;2023-04-29T02:23:53;4.00;;;3.00;;
21426;SDS011;10874;49.452;11.050;2023-04-29T02:26:22;2.93;;;2.73;;
21426;SDS011;10874;49.452;11.050;2023-04-29T02:28:49;3.50;;;3.20;;
21426;SDS011;10874;49.452;11.050;2023-04-29T02:31:19;3.07;;;2.87;;
21426;SDS011;10874;49.452;11.050;2023-04-29T02:33:47;3.47;;;3.17;;
21426;SDS011;10874;49.452;11.050;2023-04-29T02:36:14;3.47;;;3.17;;
21426;SDS011;10874;49.452;11.050;2023-04-29T02:38:42;3.97;;;3.57;;
21426;SDS011;10874;49.452;11.050;2023-04-29T02:41:09;3.50;;;3.20;;
21426;SDS011;10874;49.452;11.050;2023-04-29T02:43:35;3.60;;;3.30;;
21426;SDS011;10874;49.452;11.050;2023-04-29T02:46:02;3.10;;;2.90;;
21426;SDS011;10874;49.452;11.050;2023-04-29T02:48:29;4.00;;;3.37;;
21426;SDS011;10874;49.452;11.050;2023-04-29T02:50:56;3.80;;;3.20;;
21426;SDS011;10874;49.452;11.050;2023-04-29T02:53:22;3.87;;;3.57;;
21426;SDS011;10874;49.452;11.050;2023-04-29T02:55:49;3.93;;;3.50;;
21426;SDS011;10874;49.452;11.050;2023-04-29T02:58:16;4.37;;;3.57;;
21426;SDS011;10874;49.452;11.050;2023-04-29T03:00:43;3.97;;;3.57;;
21426;SDS011;10874;49.452;11.050;2023-04-29T03:03:09;3.90;;;3.60;;
21426;SDS011;10874;49.452;11.050;2023-04-29T03:05:37;3.60;;;3.30;;
21426;SDS011;10874;49.452;11.050;2023-04-29T03:08:04;3.83;;;3.53;;
21426;SDS011;10874;49.452;11.050;2023-04-29T03:10:31;5.27;;;3.50;;
21426;SDS011;10874;49.452;11.050;2023-04-29T03:12:58;4.00;;;3.70;;
21426;SDS011;10874;49.452;11.050;2023-04-29T03:15:24;3.20;;;2.93;;
21426;SDS011;10874;49.452;11.050;2023-04-29T03:17:51;3.60;;;3.30;;
21426;SDS011;10874;49.452;11.050;2023-04-29T03:20:18;3.80;;;3.50;;
21426;SDS011;10874;49.452;11.050;2023-04-29T03:22:45;3.87;;;3.47;;
21426;SDS011;10874;49.452;11.050;2023-04-29T03:25:12;3.73;;;3.43;;
21426;SDS011;10874;49.452;11.050;2023-04-29T03:27:40;4.30;;;3.70;;
21426;SDS011;10874;49.452;11.050;2023-04-29T03:30:07;4.20;;;3.80;;
21426;SDS011;10874;49.452;11.050;2023-04-29T03:32:40;4.23;;;3.77;;
21426;SDS011;10874;49.452;11.050;2023-04-29T03:35:07;4.40;;;3.77;;
21426;SDS011;10874;49.452;11.050;2023-04-29T03:37:58;4.00;;;3.67;;
21426;SDS011;10874;49.452;11.050;2023-04-29T03:40:29;4.27;;;3.70;;
21426;SDS011;10874;49.452;11.050;2023-04-29T03:42:55;4.37;;;3.97;;
21426;SDS011;10874;49.452;11.050;2023-04-29T03:45:24;4.80;;;4.40;;
21426;SDS011;10874;49.452;11.050;2023-04-29T03:47:50;4.97;;;4.57;;
21426;SDS011;10874;49.452;11.050;2023-04-29T03:50:19;4.97;;;4.57;;
21426;SDS011;10874;49.452;11.050;2023-04-29T03:52:46;4.83;;;4.17;;
21426;SDS011;10874;49.452;11.050;2023-04-29T03:55:15;5.77;;;4.80;;
21426;SDS011;10874;49.452;11.050;2023-04-29T03:57:43;4.23;;;3.83;;
21426;SDS011;10874;49.452;11.050;2023-04-29T04:00:11;4.87;;;4.37;;
21426;SDS011;10874;49.452;11.050;2023-04-29T04:02:47;4.83;;;4.43;;
21426;SDS011;10874;49.452;11.050;2023-04-29T04:05:15;4.60;;;4.20;;
21426;SDS011;10874;49.452;11.050;2023-04-29T04:07:47;5.00;;;4.60;;
21426;SDS011;10874;49.452;11.050;2023-04-29T04:10:32;4.63;;;4.10;;
21426;SDS011;10874;49.452;11.050;2023-04-29T04:13:02;5.30;;;4.60;;
21426;SDS011;10874;49.452;11.050;2023-04-29T04:15:29;5.13;;;4.63;;
21426;SDS011;10874;49.452;11.050;2023-04-29T04:17:57;4.87;;;4.40;;
21426;SDS011;10874;49.452;11.050;2023-04-29T04:20:23;4.90;;;4.40;;
21426;SDS011;10874;49.452;11.050;2023-04-29T04:22:50;4.87;;;4.47;;
21426;SDS011;10874;49.452;11.050;2023-04-29T04:25:22;5.07;;;4.67;;
21426;SDS011;10874;49.452;11.050;2023-04-29T04:27:50;4.70;;;4.23;;
21426;SDS011;10874;49.452;11.050;2023-04-29T04:30:45;5.33;;;4.83;;
21426;SDS011;10874;49.452;11.050;2023-04-29T04:33:12;5.10;;;4.60;;
21426;SDS011;10874;49.452;11.050;2023-04-29T04:35:41;5.60;;;4.70;;
21426;SDS011;10874;49.452;11.050;2023-04-29T04:38:08;5.23;;;4.73;;
21426;SDS011;10874;49.452;11.050;2023-04-29T04:40:39;5.27;;;4.77;;
21426;SDS011;10874;49.452;11.050;2023-04-29T04:43:23;4.90;;;4.37;;
21426;SDS011;10874;49.452;11.050;2023-04-29T04:45:50;5.30;;;4.80;;
21426;SDS011;10874;49.452;11.050;2023-04-29T04:48:17;5.07;;;4.67;;
21426;SDS011;10874;49.452;11.050;2023-04-29T04:50:48;6.00;;;5.33;;
21426;SDS011;10874;49.452;11.050;2023-04-29T04:53:14;6.10;;;5.50;;
21426;SDS011;10874;49.452;11.050;2023-04-29T04:55:46;6.00;;;5.40;;
21426;SDS011;10874;49.452;11.050;2023-04-29T04:58:15;5.77;;;5.27;;
21426;SDS011;10874;49.452;11.050;2023-04-29T05:00:45;6.53;;;5.93;;
21426;SDS011;10874;49.452;11.050;2023-04-29T05:03:12;6.07;;;5.50;;
21426;SDS011;10874;49.452;11.050;2023-04-29T05:05:39;6.30;;;5.73;;
21426;SDS011;10874;49.452;11.050;2023-04-29T05:08:06;6.40;;;5.80;;
21426;SDS011;10874;49.452;11.050;2023-04-29T05:10:40;6.13;;;5.63;;
21426;SDS011;10874;49.452;11.050;2023-04-29T05:13:09;6.53;;;5.93;;
21426;SDS011;10874;49.452;11.050;2023-04-29T05:15:36;6.77;;;6.10;;
21426;SDS011;10874;49.452;11.050;2023-04-29T05:18:04;6.20;;;5.60;;
21426;SDS011;10874;49.452;11.050;2023-04-29T05:20:31;6.57;;;5.97;;
21426;SDS011;10874;49.452;11.050;2023-04-29T05:22:59;6.93;;;5.97;;
21426;SDS011;10874;49.452;11.050;2023-04-29T05:25:28;7.57;;;5.97;;
21426;SDS011;10874;49.452;11.050;2023-04-29T05:27:56;7.47;;;5.33;;
21426;SDS011;10874;49.452;11.050;2023-04-29T05:30:24;6.93;;;6.07;;
21426;SDS011;10874;49.452;11.050;2023-04-29T05:32:51;6.37;;;5.70;;
21426;SDS011;10874;49.452;11.050;2023-04-29T05:35:20;6.47;;;5.87;;
21426;SDS011;10874;49.452;11.050;2023-04-29T05:37:47;6.57;;;5.87;;
21426;SDS011;10874;49.452;11.050;2023-04-29T05:40:21;6.47;;;5.33;;
21426;SDS011;10874;49.452;11.050;2023-04-29T05:42:49;6.50;;;5.87;;
21426;SDS011;10874;49.452;11.050;2023-04-29T05:45:16;6.80;;;6.10;;
21426;SDS011;10874;49.452;11.050;2023-04-29T05:47:43;6.03;;;5.53;;
21426;SDS011;10874;49.452;11.050;2023-04-29T05:50:10;7.00;;;5.50;;
21426;SDS011;10874;49.452;11.050;2023-04-29T05:52:38;8.20;;;6.83;;
21426;SDS011;10874;49.452;11.050;2023-04-29T05:55:04;13.80;;;12.00;;
21426;SDS011;10874;49.452;11.050;2023-04-29T05:57:31;7.47;;;6.77;;
21426;SDS011;10874;49.452;11.050;2023-04-29T05:59:58;7.60;;;6.40;;
21426;SDS011;10874;49.452;11.050;2023-04-29T06:02:25;13.77;;;11.13;;
21426;SDS011;10874;49.452;11.050;2023-04-29T06:04:52;7.33;;;6.27;;
21426;SDS011;10874;49.452;11.050;2023-04-29T06:07:35;6.33;;;5.83;;
21426;SDS011;10874;49.452;11.050;2023-04-29T06:10:10;6.50;;;5.60;;
21426;SDS011;10874;49.452;11.050;2023-04-29T06:12:39;6.40;;;5.80;;
21426;SDS011;10874;49.452;11.050;2023-04-29T06:15:07;6.17;;;5.57;;
21426;SDS011;10874;49.452;11.050;2023-04-29T06:17:34;8.47;;;7.57;;
21426;SDS011;10874;49.452;11.050;2023-04-29T06:20:01;7.83;;;6.57;;
21426;SDS011;10874;49.452;11.050;2023-04-29T06:22:28;6.63;;;6.00;;
21426;SDS011;10874;49.452;11.050;2023-04-29T06:24:55;7.97;;;5.43;;
21426;SDS011;10874;49.452;11.050;2023-04-29T06:27:44;7.07;;;6.37;;
21426;SDS011;10874;49.452;11.050;2023-04-29T06:30:12;6.30;;;5.70;;
21426;SDS011;10874;49.452;11.050;2023-04-29T06:32:38;10.53;;;8.03;;
21426;SDS011;10874;49.452;11.050;2023-04-29T06:35:06;8.77;;;7.10;;
21426;SDS011;10874;49.452;11.050;2023-04-29T06:37:51;7.27;;;6.57;;
21426;SDS011;10874;49.452;11.050;2023-04-29T06:40:37;7.13;;;6.43;;
21426;SDS011;10874;49.452;11.050;2023-04-29T06:43:09;7.80;;;6.90;;
21426;SDS011;10874;49.452;11.050;2023-04-29T06:45:50;8.63;;;7.83;;
21426;SDS011;10874;49.452;11.050;2023-04-29T06:48:38;7.93;;;7.10;;
21426;SDS011;10874;49.452;11.050;2023-04-29T06:51:04;7.33;;;6.60;;
21426;SDS011;10874;49.452;11.050;2023-04-29T06:53:35;8.30;;;7.50;;
21426;SDS011;10874;49.452;11.050;2023-04-29T06:56:01;7.73;;;7.03;;
21426;SDS011;10874;49.452;11.050;2023-04-29T06:58:28;8.80;;;7.57;;
21426;SDS011;10874;49.452;11.050;2023-04-29T07:00:55;7.83;;;7.13;;
21426;SDS011;10874;49.452;11.050;2023-04-29T07:03:21;7.37;;;6.67;;
21426;SDS011;10874;49.452;11.050;2023-04-29T07:05:49;8.03;;;6.63;;
21426;SDS011;10874;49.452;11.050;2023-04-29T07:08:16;7.37;;;6.67;;
21426;SDS011;10874;49.452;11.050;2023-04-29T07:10:42;9.07;;;7.10;;
21426;SDS011;10874;49.452;11.050;2023-04-29T07:13:09;7.07;;;6.37;;
21426;SDS011;10874;49.452;11.050;2023-04-29T07:15:36;7.30;;;6.60;;
21426;SDS011;10874;49.452;11.050;2023-04-29T07:18:03;8.10;;;7.30;;
21426;SDS011;10874;49.452;11.050;2023-04-29T07:20:31;7.27;;;6.40;;
21426;SDS011;10874;49.452;11.050;2023-04-29T07:22:58;6.60;;;6.00;;
21426;SDS011;10874;49.452;11.050;2023-04-29T07:25:25;6.40;;;5.80;;
21426;SDS011;10874;49.452;11.050;2023-04-29T07:27:52;8.07;;;7.27;;
21426;SDS011;10874;49.452;11.050;2023-04-29T07:30:18;7.33;;;6.63;;
21426;SDS011;10874;49.452;11.050;2023-04-29T07:32:45;8.40;;;6.63;;
21426;SDS011;10874;49.452;11.050;2023-04-29T07:35:12;8.03;;;6.50;;
21426;SDS011;10874;49.452;11.050;2023-04-29T07:37:40;7.07;;;6.37;;
21426;SDS011;10874;49.452;11.050;2023-04-29T07:40:10;7.10;;;6.50;;
21426;SDS011;10874;49.452;11.050;2023-04-29T07:42:37;7.57;;;6.43;;
21426;SDS011;10874;49.452;11.050;2023-04-29T07:45:05;7.43;;;6.73;;
21426;SDS011;10874;49.452;11.050;2023-04-29T07:47:32;6.87;;;6.17;;
21426;SDS011;10874;49.452;11.050;2023-04-29T07:49:59;6.83;;;6.23;;
21426;SDS011;10874;49.452;11.050;2023-04-29T07:52:26;6.87;;;6.17;;
21426;SDS011;10874;49.452;11.050;2023-04-29T07:54:53;8.03;;;6.37;;
21426;SDS011;10874;49.452;11.050;2023-04-29T07:57:22;6.90;;;6.30;;
21426;SDS011;10874;49.452;11.050;2023-04-29T07:59:52;7.80;;;7.00;;
21426;SDS011;10874;49.452;11.050;2023-04-29T08:02:19;7.07;;;6.47;;
21426;SDS011;10874;49.452;11.050;2023-04-29T08:04:47;7.50;;;6.63;;
21426;SDS011;10874;49.452;11.050;2023-04-29T08:07:17;6.93;;;6.33;;
21426;SDS011;10874;49.452;11.050;2023-04-29T08:09:43;8.37;;;6.80;;
21426;SDS011;10874;49.452;11.050;2023-04-29T08:12:10;9.23;;;7.10;;
21426;SDS011;10874;49.452;11.050;2023-04-29T08:14:39;8.57;;;6.93;;
21426;SDS011;10874;49.452;11.050;2023-04-29T08:17:06;6.60;;;5.30;;
21426;SDS011;10874;49.452;11.050;2023-04-29T08:19:33;8.50;;;7.10;;
21426;SDS011;10874;49.452;11.050;2023-04-29T08:22:00;8.10;;;7.10;;
21426;SDS011;10874;49.452;11.050;2023-04-29T08:24:27;7.57;;;6.87;;
21426;SDS011;10874;49.452;11.050;2023-04-29T08:26:55;13.13;;;6.90;;
21426;SDS011;10874;49.452;11.050;2023-04-29T08:29:21;8.47;;;7.10;;
21426;SDS011;10874;49.452;11.050;2023-04-29T08:31:48;7.70;;;6.30;;
21426;SDS011;10874;49.452;11.050;2023-04-29T08:34:15;10.13;;;6.40;;
21426;SDS011;10874;49.452;11.050;2023-04-29T08:36:42;7.83;;;6.37;;
21426;SDS011;10874;49.452;11.050;2023-04-29T08:39:08;7.93;;;7.13;;
21426;SDS011;10874;49.452;11.050;2023-04-29T08:41:35;7.80;;;7.10;;
21426;SDS011;10874;49.452;11.050;2023-04-29T08:44:02;7.43;;;6.17;;
21426;SDS011;10874;49.452;11.050;2023-04-29T08:46:29;6.43;;;5.73;;
21426;SDS011;10874;49.452;11.050;2023-04-29T08:48:56;7.57;;;6.77;;
21426;SDS011;10874;49.452;11.050;2023-04-29T08:51:23;7.00;;;5.73;;
21426;SDS011;10874;49.452;11.050;2023-04-29T08:53:50;6.80;;;6.13;;
21426;SDS011;10874;49.452;11.050;2023-04-29T08:56:17;6.10;;;5.60;;
21426;SDS011;10874;49.452;11.050;2023-04-29T08:58:50;5.97;;;5.47;;
21426;SDS011;10874;49.452;11.050;2023-04-29T09:01:20;7.17;;;6.27;;
21426;SDS011;10874;49.452;11.050;2023-04-29T09:04:03;6.73;;;5.40;;
21426;SDS011;10874;49.452;11.050;2023-04-29T09:06:32;6.07;;;5.50;;
21426;SDS011;10874;49.452;11.050;2023-04-29T09:08:59;6.53;;;4.90;;
21426;SDS011;10874;49.452;11.050;2023-04-29T09:11:27;7.40;;;5.67;;
21426;SDS011;10874;49.452;11.050;2023-04-29T09:13:59;6.00;;;5.40;;
21426;SDS011;10874;49.452;11.050;2023-04-29T09:16:27;5.70;;;5.13;;
21426;SDS011;10874;49.452;11.050;2023-04-29T09:18:54;6.47;;;5.97;;
21426;SDS011;10874;49.452;11.050;2023-04-29T09:21:28;6.10;;;5.50;;
21426;SDS011;10874;49.452;11.050;2023-04-29T09:23:58;6.03;;;5.53;;
21426;SDS011;10874;49.452;11.050;2023-04-29T09:26:25;5.73;;;5.23;;
21426;SDS011;10874;49.452;11.050;2023-04-29T09:29:09;5.50;;;5.10;;
21426;SDS011;10874;49.452;11.050;2023-04-29T09:31:37;6.00;;;5.40;;
21426;SDS011;10874;49.452;11.050;2023-04-29T09:34:07;6.47;;;5.87;;
21426;SDS011;10874;49.452;11.050;2023-04-29T09:36:47;6.17;;;5.60;;
21426;SDS011;10874;49.452;11.050;2023-04-29T09:39:18;6.43;;;5.90;;
21426;SDS011;10874;49.452;11.050;2023-04-29T09:44:21;6.47;;;5.87;;
21426;SDS011;10874;49.452;11.050;2023-04-29T09:46:55;6.53;;;5.87;;
21426;SDS011;10874;49.452;11.050;2023-04-29T09:49:27;5.73;;;5.23;;
21426;SDS011;10874;49.452;11.050;2023-04-29T09:51:55;6.60;;;6.00;;
21426;SDS011;10874;49.452;11.050;2023-04-29T09:54:22;6.87;;;6.27;;
21426;SDS011;10874;49.452;11.050;2023-04-29T09:56:50;6.30;;;5.70;;
21426;SDS011;10874;49.452;11.050;2023-04-29T09:59:17;7.30;;;6.63;;
21426;SDS011;10874;49.452;11.050;2023-04-29T10:01:46;6.83;;;6.23;;
21426;SDS011;10874;49.452;11.050;2023-04-29T10:04:14;5.77;;;5.27;;
21426;SDS011;10874;49.452;11.050;2023-04-29T10:06:41;5.90;;;5.40;;
21426;SDS011;10874;49.452;11.050;2023-04-29T10:09:11;6.83;;;6.13;;
21426;SDS011;10874;49.452;11.050;2023-04-29T10:11:41;6.17;;;5.60;;
21426;SDS011;10874;49.452;11.050;2023-04-29T10:14:10;6.23;;;5.63;;
21426;SDS011;10874;49.452;11.050;2023-04-29T10:16:47;6.53;;;5.90;;
21426;SDS011;10874;49.452;11.050;2023-04-29T10:19:18;11.80;;;10.53;;
21426;SDS011;10874;49.452;11.050;2023-04-29T10:21:47;6.27;;;5.77;;
21426;SDS011;10874;49.452;11.050;2023-04-29T10:24:16;6.10;;;5.60;;
21426;SDS011;10874;49.452;11.050;2023-04-29T10:26:43;6.23;;;5.63;;
21426;SDS011;10874;49.452;11.050;2023-04-29T10:29:10;6.03;;;5.53;;
21426;SDS011;10874;49.452;11.050;2023-04-29T10:31:40;5.60;;;5.10;;
21426;SDS011;10874;49.452;11.050;2023-04-29T10:34:07;5.53;;;5.03;;
21426;SDS011;10874;49.452;11.050;2023-04-29T10:36:33;6.97;;;5.47;;
21426;SDS011;10874;49.452;11.050;2023-04-29T10:39:01;6.30;;;5.27;;
21426;SDS011;10874;49.452;11.050;2023-04-29T10:41:30;6.30;;;5.70;;
21426;SDS011;10874;49.452;11.050;2023-04-29T10:43:58;6.73;;;5.60;;
21426;SDS011;10874;49.452;11.050;2023-04-29T10:46:29;6.70;;;6.10;;
21426;SDS011;10874;49.452;11.050;2023-04-29T10:48:59;6.37;;;5.70;;
21426;SDS011;10874;49.452;11.050;2023-04-29T10:51:30;6.10;;;5.57;;
21426;SDS011;10874;49.452;11.050;2023-04-29T10:53:59;6.63;;;6.10;;
21426;SDS011;10874;49.452;11.050;2023-04-29T10:56:40;6.37;;;5.83;;
21426;SDS011;10874;49.452;11.050;2023-04-29T10:59:10;6.40;;;5.80;;
21426;SDS011;10874;49.452;11.050;2023-04-29T11:01:45;6.67;;;6.07;;
21426;SDS011;10874;49.452;11.050;2023-04-29T11:04:12;6.47;;;5.47;;
21426;SDS011;10874;49.452;11.050;2023-04-29T11:06:40;5.83;;;5.27;;
21426;SDS011;10874;49.452;11.050;2023-04-29T11:12:01;5.93;;;5.33;;
21426;SDS011;10874;49.452;11.050;2023-04-29T11:14:42;5.83;;;5.33;;
21426;SDS011;10874;49.452;11.050;2023-04-29T11:17:11;5.97;;;5.37;;
21426;SDS011;10874;49.452;11.050;2023-04-29T11:19:39;6.80;;;6.07;;
21426;SDS011;10874;49.452;11.050;2023-04-29T11:24:34;5.67;;;5.17;;
21426;SDS011;10874;49.452;11.050;2023-04-29T11:27:02;5.80;;;5.20;;
21426;SDS011;10874;49.452;11.050;2023-04-29T11:29:30;5.83;;;5.27;;
21426;SDS011;10874;49.452;11.050;2023-04-29T11:31:58;5.67;;;5.10;;
21426;SDS011;10874;49.452;11.050;2023-04-29T11:34:25;6.43;;;5.83;;
21426;SDS011;10874;49.452;11.050;2023-04-29T11:36:53;6.07;;;5.40;;
21426;SDS011;10874;49.452;11.050;2023-04-29T11:39:19;6.07;;;5.47;;
21426;SDS011;10874;49.452;11.050;2023-04-29T11:41:47;6.03;;;5.43;;
21426;SDS011;10874;49.452;11.050;2023-04-29T11:44:21;5.97;;;5.30;;
21426;SDS011;10874;49.452;11.050;2023-04-29T11:46:50;6.70;;;5.37;;
21426;SDS011;10874;49.452;11.050;2023-04-29T11:49:17;5.13;;;4.63;;
21426;SDS011;10874;49.452;11.050;2023-04-29T11:51:44;5.13;;;4.73;;
21426;SDS011;10874;49.452;11.050;2023-04-29T11:54:11;4.77;;;4.37;;
21426;SDS011;10874;49.452;11.050;2023-04-29T11:56:38;5.00;;;4.60;;
21426;SDS011;10874;49.452;11.050;2023-04-29T11:59:04;5.00;;;4.60;;
21426;SDS011;10874;49.452;11.050;2023-04-29T12:01:34;6.33;;;4.70;;
21426;SDS011;10874;49.452;11.050;2023-04-29T12:04:01;5.10;;;4.70;;
21426;SDS011;10874;49.452;11.050;2023-04-29T12:06:29;5.30;;;4.33;;
21426;SDS011;10874;49.452;11.050;2023-04-29T12:08:59;4.63;;;4.23;;
21426;SDS011;10874;49.452;11.050;2023-04-29T12:11:26;4.23;;;3.50;;
21426;SDS011;10874;49.452;11.050;2023-04-29T12:13:54;3.60;;;3.30;;
21426;SDS011;10874;49.452;11.050;2023-04-29T12:16:21;3.50;;;3.20;;
21426;SDS011;10874;49.452;11.050;2023-04-29T12:18:50;4.20;;;3.80;;
21426;SDS011;10874;49.452;11.050;2023-04-29T12:21:17;5.47;;;3.87;;
21426;SDS011;10874;49.452;11.050;2023-04-29T12:23:44;4.33;;;3.90;;
21426;SDS011;10874;49.452;11.050;2023-04-29T12:26:11;3.73;;;3.27;;
21426;SDS011;10874;49.452;11.050;2023-04-29T12:28:39;3.67;;;3.37;;
21426;SDS011;10874;49.452;11.050;2023-04-29T12:31:08;3.67;;;3.37;;
21426;SDS011;10874;49.452;11.050;2023-04-29T12:33:35;4.33;;;3.93;;
21426;SDS011;10874;49.452;11.050;2023-04-29T12:36:01;4.10;;;3.67;;
21426;SDS011;10874;49.452;11.050;2023-04-29T12:38:29;4.43;;;3.63;;
21426;SDS011;10874;49.452;11.050;2023-04-29T12:40:59;3.80;;;3.50;;
21426;SDS011;10874;49.452;11.050;2023-04-29T12:43:31;3.73;;;3.30;;
21426;SDS011;10874;49.452;11.050;2023-04-29T12:45:59;4.40;;;4.00;;
21426;SDS011;10874;49.452;11.050;2023-04-29T12:48:30;4.50;;;3.80;;
21426;SDS011;10874;49.452;11.050;2023-04-29T12:51:02;3.70;;;3.40;;
21426;SDS011;10874;49.452;11.050;2023-04-29T12:53:29;3.73;;;3.43;;
21426;SDS011;10874;49.452;11.050;2023-04-29T12:55:56;3.93;;;3.60;;
21426;SDS011;10874;49.452;11.050;2023-04-29T12:58:23;3.33;;;3.03;;
21426;SDS011;10874;49.452;11.050;2023-04-29T13:00:50;3.53;;;3.23;;
21426;SDS011;10874;49.452;11.050;2023-04-29T13:03:17;3.20;;;2.87;;
21426;SDS011;10874;49.452;11.050;2023-04-29T13:05:47;3.37;;;3.07;;
21426;SDS011;10874;49.452;11.050;2023-04-29T13:08:18;3.60;;;3.30;;
21426;SDS011;10874;49.452;11.050;2023-04-29T13:10:45;3.40;;;3.10;;
21426;SDS011;10874;49.452;11.050;2023-04-29T13:13:11;3.40;;;3.10;;
21426;SDS011;10874;49.452;11.050;2023-04-29T13:15:38;3.53;;;3.13;;
21426;SDS011;10874;49.452;11.050;2023-04-29T13:18:05;4.37;;;3.43;;
21426;SDS011;10874;49.452;11.050;2023-04-29T13:20:32;4.17;;;3.40;;
21426;SDS011;10874;49.452;11.050;2023-04-29T13:23:07;4.33;;;3.93;;
21426;SDS011;10874;49.452;11.050;2023-04-29T13:25:34;3.90;;;3.53;;
21426;SDS011;10874;49.452;11.050;2023-04-29T13:28:01;7.47;;;5.57;;
21426;SDS011;10874;49.452;11.050;2023-04-29T13:30:28;3.57;;;3.13;;
21426;SDS011;10874;49.452;11.050;2023-04-29T13:32:55;3.43;;;3.13;;
21426;SDS011;10874;49.452;11.050;2023-04-29T13:35:29;3.63;;;3.20;;
21426;SDS011;10874;49.452;11.050;2023-04-29T13:37:56;2.90;;;2.70;;
21426;SDS011;10874;49.452;11.050;2023-04-29T13:40:23;3.90;;;3.30;;
21426;SDS011;10874;49.452;11.050;2023-04-29T13:42:53;4.23;;;2.70;;
21426;SDS011;10874;49.452;11.050;2023-04-29T13:45:32;2.87;;;2.63;;
21426;SDS011;10874;49.452;11.050;2023-04-29T13:48:05;2.77;;;2.57;;
21426;SDS011;10874;49.452;11.050;2023-04-29T13:50:46;2.77;;;2.57;;
21426;SDS011;10874;49.452;11.050;2023-04-29T13:53:32;3.13;;;2.80;;
21426;SDS011;10874;49.452;11.050;2023-04-29T13:56:19;3.20;;;2.90;;
21426;SDS011;10874;49.452;11.050;2023-04-29T13:58:49;2.63;;;2.43;;
21426;SDS011;10874;49.452;11.050;2023-04-29T14:01:19;3.47;;;2.70;;
21426;SDS011;10874;49.452;11.050;2023-04-29T14:03:48;3.57;;;3.27;;
21426;SDS011;10874;49.452;11.050;2023-04-29T14:06:15;2.50;;;2.30;;
21426;SDS011;10874;49.452;11.050;2023-04-29T14:08:42;2.60;;;2.40;;
21426;SDS011;10874;49.452;11.050;2023-04-29T14:11:08;2.77;;;2.50;;
21426;SDS011;10874;49.452;11.050;2023-04-29T14:13:35;3.43;;;2.70;;
21426;SDS011;10874;49.452;11.050;2023-04-29T14:16:02;2.67;;;2.37;;
21426;SDS011;10874;49.452;11.050;2023-04-29T14:18:31;2.70;;;2.50;;
21426;SDS011;10874;49.452;11.050;2023-04-29T14:20:58;2.70;;;2.50;;
21426;SDS011;10874;49.452;11.050;2023-04-29T14:23:25;2.70;;;2.50;;
21426;SDS011;10874;49.452;11.050;2023-04-29T14:25:52;3.23;;;2.93;;
21426;SDS011;10874;49.452;11.050;2023-04-29T14:28:27;2.90;;;2.10;;
21426;SDS011;10874;49.452;11.050;2023-04-29T14:30:54;4.87;;;4.33;;
21426;SDS011;10874;49.452;11.050;2023-04-29T14:33:22;3.23;;;2.93;;
21426;SDS011;10874;49.452;11.050;2023-04-29T14:35:49;4.53;;;3.33;;
21426;SDS011;10874;49.452;11.050;2023-04-29T14:38:16;2.70;;;2.50;;
21426;SDS011;10874;49.452;11.050;2023-04-29T14:40:43;3.23;;;2.50;;
21426;SDS011;10874;49.452;11.050;2023-04-29T14:43:10;2.60;;;2.37;;
21426;SDS011;10874;49.452;11.050;2023-04-29T14:45:36;3.77;;;2.60;;
21426;SDS011;10874;49.452;11.050;2023-04-29T14:48:03;2.37;;;2.17;;
21426;SDS011;10874;49.452;11.050;2023-04-29T14:50:30;2.80;;;2.50;;
21426;SDS011;10874;49.452;11.050;2023-04-29T14:52:57;3.20;;;2.90;;
21426;SDS011;10874;49.452;11.050;2023-04-29T14:55:24;3.30;;;3.00;;
21426;SDS011;10874;49.452;11.050;2023-04-29T14:57:51;2.97;;;2.57;;
21426;SDS011;10874;49.452;11.050;2023-04-29T15:00:17;3.43;;;2.70;;